Terminal Aerodrome Forecast
Issued by NWS

Home | Current Version | Previous Version | Graphics & Text | Print | Product List | Glossary On
Versions: 1 2 3 4 5 6 7 8 9 10 11 12 13 14 15 16 17 18 19 20 21 22 23 24 25
206
FTUS43 KLOT 142104 AAA
TAFDPA
TAF AMD
KDPA 142104Z 1421/1518 23008KT P6SM SCT050 BKN250
     FM150200 21006KT P6SM VCTS SCT040CB BKN080
     FM150600 23006KT P6SM SCT030 BKN060
     FM151000 VRB03KT 4SM BR SCT020
     FM151200 33006KT 6SM BR BKN025
     FM151600 01007KT P6SM SCT050=

USA.gov is the U.S. government's official web portal to all federal, state and local government web resources and services.